sensor_id;sensor_type;location;lat;lon;timestamp;pressure;altitude;pressure_sealevel;temperature;humidity
41254;BME280;26987;59.928;30.306;2022-09-01T00:01:52;100904.84;;;7.10;100.00
41254;BME280;26987;59.928;30.306;2022-09-01T00:04:23;100903.84;;;7.11;100.00
41254;BME280;26987;59.928;30.306;2022-09-01T00:06:53;100895.53;;;7.05;100.00
41254;BME280;26987;59.928;30.306;2022-09-01T00:09:22;100900.03;;;7.05;100.00
41254;BME280;26987;59.928;30.306;2022-09-01T00:11:51;100896.22;;;7.07;100.00
41254;BME280;26987;59.928;30.306;2022-09-01T00:14:22;100901.38;;;7.09;100.00
41254;BME280;26987;59.928;30.306;2022-09-01T00:16:51;100898.38;;;7.04;100.00
41254;BME280;26987;59.928;30.306;2022-09-01T00:19:20;100906.91;;;6.99;100.00
41254;BME280;26987;59.928;30.306;2022-09-01T00:21:48;100883.38;;;6.88;100.00
41254;BME280;26987;59.928;30.306;2022-09-01T00:24:17;100888.34;;;6.91;100.00
41254;BME280;26987;59.928;30.306;2022-09-01T00:26:45;100895.50;;;6.90;100.00
41254;BME280;26987;59.928;30.306;2022-09-01T00:29:14;100897.50;;;6.88;100.00
41254;BME280;26987;59.928;30.306;2022-09-01T00:31:42;100880.38;;;6.82;100.00
41254;BME280;26987;59.928;30.306;2022-09-01T00:34:10;100893.91;;;6.81;100.00
41254;BME280;26987;59.928;30.306;2022-09-01T00:36:40;100883.59;;;6.78;100.00
41254;BME280;26987;59.928;30.306;2022-09-01T00:39:08;100887.44;;;6.75;100.00
41254;BME280;26987;59.928;30.306;2022-09-01T00:41:38;100889.28;;;6.75;100.00
41254;BME280;26987;59.928;30.306;2022-09-01T00:44:10;100871.69;;;6.65;100.00
41254;BME280;26987;59.928;30.306;2022-09-01T00:46:41;100879.00;;;6.72;100.00
41254;BME280;26987;59.928;30.306;2022-09-01T00:49:14;100878.59;;;6.75;100.00
41254;BME280;26987;59.928;30.306;2022-09-01T00:51:48;100878.81;;;6.73;100.00
41254;BME280;26987;59.928;30.306;2022-09-01T00:54:20;100869.97;;;6.73;100.00
41254;BME280;26987;59.928;30.306;2022-09-01T00:56:49;100869.50;;;6.69;100.00
41254;BME280;26987;59.928;30.306;2022-09-01T00:59:20;100869.84;;;6.66;100.00
41254;BME280;26987;59.928;30.306;2022-09-01T01:01:49;100861.22;;;6.64;100.00
41254;BME280;26987;59.928;30.306;2022-09-01T01:04:17;100856.06;;;6.62;100.00
41254;BME280;26987;59.928;30.306;2022-09-01T01:06:49;100855.53;;;6.67;100.00
41254;BME280;26987;59.928;30.306;2022-09-01T01:09:25;100855.38;;;6.68;100.00
41254;BME280;26987;59.928;30.306;2022-09-01T01:11:54;100860.50;;;6.70;100.00
41254;BME280;26987;59.928;30.306;2022-09-01T01:14:25;100865.00;;;6.69;100.00
41254;BME280;26987;59.928;30.306;2022-09-01T01:16:58;100860.97;;;6.74;100.00
41254;BME280;26987;59.928;30.306;2022-09-01T01:19:40;100855.28;;;6.77;100.00
41254;BME280;26987;59.928;30.306;2022-09-01T01:22:34;100851.97;;;6.75;100.00
41254;BME280;26987;59.928;30.306;2022-09-01T01:25:25;100854.44;;;6.76;100.00
41254;BME280;26987;59.928;30.306;2022-09-01T01:28:06;100856.59;;;6.81;100.00
41254;BME280;26987;59.928;30.306;2022-09-01T01:30:36;100835.69;;;6.69;100.00
41254;BME280;26987;59.928;30.306;2022-09-01T01:33:05;100842.50;;;6.72;100.00
41254;BME280;26987;59.928;30.306;2022-09-01T01:35:33;100843.88;;;6.68;100.00
41254;BME280;26987;59.928;30.306;2022-09-01T01:38:03;100854.69;;;6.66;100.00
41254;BME280;26987;59.928;30.306;2022-09-01T01:40:37;100844.69;;;6.68;100.00
41254;BME280;26987;59.928;30.306;2022-09-01T01:43:05;100843.56;;;6.63;100.00
41254;BME280;26987;59.928;30.306;2022-09-01T01:45:34;100835.75;;;6.61;100.00
41254;BME280;26987;59.928;30.306;2022-09-01T01:48:02;100845.41;;;6.62;100.00
41254;BME280;26987;59.928;30.306;2022-09-01T01:50:36;100843.91;;;6.60;100.00
41254;BME280;26987;59.928;30.306;2022-09-01T01:53:06;100840.25;;;6.61;100.00
41254;BME280;26987;59.928;30.306;2022-09-01T01:55:38;100827.47;;;6.56;100.00
41254;BME280;26987;59.928;30.306;2022-09-01T01:58:07;100843.81;;;6.53;100.00
41254;BME280;26987;59.928;30.306;2022-09-01T02:00:38;100835.81;;;6.53;100.00
41254;BME280;26987;59.928;30.306;2022-09-01T02:03:08;100829.38;;;6.47;100.00
41254;BME280;26987;59.928;30.306;2022-09-01T02:05:38;100830.47;;;6.53;100.00
41254;BME280;26987;59.928;30.306;2022-09-01T02:08:09;100828.47;;;6.55;100.00
41254;BME280;26987;59.928;30.306;2022-09-01T02:10:42;100832.78;;;6.56;100.00
41254;BME280;26987;59.928;30.306;2022-09-01T02:13:14;100833.16;;;6.53;100.00
41254;BME280;26987;59.928;30.306;2022-09-01T02:15:44;100831.97;;;6.55;100.00
41254;BME280;26987;59.928;30.306;2022-09-01T02:18:16;100828.75;;;6.60;100.00
41254;BME280;26987;59.928;30.306;2022-09-01T02:20:45;100822.97;;;6.56;100.00
41254;BME280;26987;59.928;30.306;2022-09-01T02:23:15;100820.94;;;6.59;100.00
41254;BME280;26987;59.928;30.306;2022-09-01T02:25:51;100820.78;;;6.60;100.00
41254;BME280;26987;59.928;30.306;2022-09-01T02:28:21;100826.44;;;6.57;100.00
41254;BME280;26987;59.928;30.306;2022-09-01T02:30:51;100815.34;;;6.53;100.00
41254;BME280;26987;59.928;30.306;2022-09-01T02:33:21;100824.13;;;6.54;100.00
41254;BME280;26987;59.928;30.306;2022-09-01T02:35:52;100823.97;;;6.55;100.00
41254;BME280;26987;59.928;30.306;2022-09-01T02:38:21;100820.84;;;6.52;100.00
41254;BME280;26987;59.928;30.306;2022-09-01T02:40:57;100827.03;;;6.67;100.00
41254;BME280;26987;59.928;30.306;2022-09-01T02:43:25;100818.47;;;6.57;100.00
41254;BME280;26987;59.928;30.306;2022-09-01T02:45:55;100812.50;;;6.55;100.00
41254;BME280;26987;59.928;30.306;2022-09-01T02:48:26;100813.13;;;6.57;100.00
41254;BME280;26987;59.928;30.306;2022-09-01T02:50:59;100814.50;;;6.53;100.00
41254;BME280;26987;59.928;30.306;2022-09-01T02:53:28;100811.34;;;6.49;100.00
41254;BME280;26987;59.928;30.306;2022-09-01T02:55:58;100812.84;;;6.52;100.00
41254;BME280;26987;59.928;30.306;2022-09-01T02:58:29;100810.38;;;6.50;100.00
41254;BME280;26987;59.928;30.306;2022-09-01T03:00:59;100823.84;;;6.49;100.00
41254;BME280;26987;59.928;30.306;2022-09-01T03:03:27;100812.19;;;6.50;100.00
41254;BME280;26987;59.928;30.306;2022-09-01T03:05:55;100813.66;;;6.52;100.00
41254;BME280;26987;59.928;30.306;2022-09-01T03:08:24;100811.00;;;6.52;100.00
41254;BME280;26987;59.928;30.306;2022-09-01T03:10:52;100812.84;;;6.52;100.00
41254;BME280;26987;59.928;30.306;2022-09-01T03:13:22;100815.50;;;6.52;100.00
41254;BME280;26987;59.928;30.306;2022-09-01T03:15:50;100812.69;;;6.53;100.00
41254;BME280;26987;59.928;30.306;2022-09-01T03:18:19;100818.00;;;6.53;100.00
41254;BME280;26987;59.928;30.306;2022-09-01T03:20:47;100811.84;;;6.53;100.00
41254;BME280;26987;59.928;30.306;2022-09-01T03:23:18;100820.00;;;6.51;100.00
41254;BME280;26987;59.928;30.306;2022-09-01T03:25:47;100807.16;;;6.55;100.00
41254;BME280;26987;59.928;30.306;2022-09-01T03:28:15;100820.66;;;6.53;100.00
41254;BME280;26987;59.928;30.306;2022-09-01T03:30:48;100818.47;;;6.57;100.00
41254;BME280;26987;59.928;30.306;2022-09-01T03:33:18;100810.19;;;6.52;100.00
41254;BME280;26987;59.928;30.306;2022-09-01T03:35:46;100819.94;;;6.60;100.00
41254;BME280;26987;59.928;30.306;2022-09-01T03:38:15;100819.41;;;6.64;100.00
41254;BME280;26987;59.928;30.306;2022-09-01T03:40:49;100828.72;;;6.68;100.00
41254;BME280;26987;59.928;30.306;2022-09-01T03:43:19;100830.38;;;6.69;100.00
41254;BME280;26987;59.928;30.306;2022-09-01T03:45:51;100826.84;;;6.69;100.00
41254;BME280;26987;59.928;30.306;2022-09-01T03:48:22;100822.38;;;6.69;100.00
41254;BME280;26987;59.928;30.306;2022-09-01T03:50:56;100820.72;;;6.68;100.00
41254;BME280;26987;59.928;30.306;2022-09-01T03:53:29;100814.66;;;6.75;100.00
41254;BME280;26987;59.928;30.306;2022-09-01T03:55:57;100814.47;;;6.76;100.00
41254;BME280;26987;59.928;30.306;2022-09-01T03:58:27;100815.97;;;6.79;100.00
41254;BME280;26987;59.928;30.306;2022-09-01T04:00:57;100818.47;;;6.80;100.00
41254;BME280;26987;59.928;30.306;2022-09-01T04:03:31;100814.78;;;6.81;100.00
41254;BME280;26987;59.928;30.306;2022-09-01T04:06:01;100800.50;;;6.74;100.00
41254;BME280;26987;59.928;30.306;2022-09-01T04:08:31;100816.06;;;6.86;100.00
41254;BME280;26987;59.928;30.306;2022-09-01T04:11:02;100811.22;;;6.89;100.00
41254;BME280;26987;59.928;30.306;2022-09-01T04:13:34;100810.19;;;6.90;100.00
41254;BME280;26987;59.928;30.306;2022-09-01T04:16:05;100809.34;;;6.90;100.00
41254;BME280;26987;59.928;30.306;2022-09-01T04:18:36;100812.88;;;6.90;100.00
41254;BME280;26987;59.928;30.306;2022-09-01T04:21:06;100804.03;;;6.90;100.00
41254;BME280;26987;59.928;30.306;2022-09-01T04:23:35;100813.88;;;6.89;100.00
41254;BME280;26987;59.928;30.306;2022-09-01T04:26:09;100807.72;;;6.89;100.00
41254;BME280;26987;59.928;30.306;2022-09-01T04:28:43;100815.66;;;6.97;100.00
41254;BME280;26987;59.928;30.306;2022-09-01T04:31:17;100799.00;;;6.95;100.00
41254;BME280;26987;59.928;30.306;2022-09-01T04:33:49;100805.44;;;7.01;100.00
41254;BME280;26987;59.928;30.306;2022-09-01T04:36:21;100813.72;;;7.06;100.00
41254;BME280;26987;59.928;30.306;2022-09-01T04:38:52;100811.06;;;7.06;100.00
41254;BME280;26987;59.928;30.306;2022-09-01T04:41:25;100817.19;;;7.06;100.00
41254;BME280;26987;59.928;30.306;2022-09-01T04:43:58;100808.31;;;7.14;100.00
41254;BME280;26987;59.928;30.306;2022-09-01T04:46:34;100821.44;;;7.16;100.00
41254;BME280;26987;59.928;30.306;2022-09-01T04:49:05;100806.66;;;7.13;100.00
41254;BME280;26987;59.928;30.306;2022-09-01T04:51:37;100822.75;;;7.20;100.00
41254;BME280;26987;59.928;30.306;2022-09-01T04:54:06;100819.88;;;7.22;100.00
41254;BME280;26987;59.928;30.306;2022-09-01T04:56:38;100819.53;;;7.25;100.00
41254;BME280;26987;59.928;30.306;2022-09-01T04:59:13;100824.50;;;7.28;100.00
41254;BME280;26987;59.928;30.306;2022-09-01T05:01:44;100822.50;;;7.30;100.00
41254;BME280;26987;59.928;30.306;2022-09-01T05:04:15;100809.41;;;7.35;100.00
41254;BME280;26987;59.928;30.306;2022-09-01T05:06:47;100816.06;;;7.39;100.00
41254;BME280;26987;59.928;30.306;2022-09-01T05:09:18;100824.31;;;7.44;100.00
41254;BME280;26987;59.928;30.306;2022-09-01T05:12:12;100822.22;;;7.55;100.00
41254;BME280;26987;59.928;30.306;2022-09-01T05:14:45;100825.16;;;7.60;100.00
41254;BME280;26987;59.928;30.306;2022-09-01T05:17:18;100822.75;;;7.65;100.00
41254;BME280;26987;59.928;30.306;2022-09-01T05:19:48;100824.59;;;7.65;100.00
41254;BME280;26987;59.928;30.306;2022-09-01T05:22:17;100827.09;;;7.66;100.00
41254;BME280;26987;59.928;30.306;2022-09-01T05:24:55;100825.16;;;7.60;100.00
41254;BME280;26987;59.928;30.306;2022-09-01T05:27:23;100826.72;;;7.69;100.00
41254;BME280;26987;59.928;30.306;2022-09-01T05:29:52;100825.53;;;7.72;100.00
41254;BME280;26987;59.928;30.306;2022-09-01T05:32:21;100833.91;;;7.69;100.00
41254;BME280;26987;59.928;30.306;2022-09-01T05:34:52;100830.03;;;7.72;100.00
41254;BME280;26987;59.928;30.306;2022-09-01T05:37:20;100834.56;;;7.71;100.00
41254;BME280;26987;59.928;30.306;2022-09-01T05:39:48;100830.03;;;7.72;100.00
41254;BME280;26987;59.928;30.306;2022-09-01T05:42:17;100825.59;;;7.79;100.00
41254;BME280;26987;59.928;30.306;2022-09-01T05:44:45;100832.66;;;7.87;100.00
41254;BME280;26987;59.928;30.306;2022-09-01T05:47:15;100833.13;;;7.90;100.00
41254;BME280;26987;59.928;30.306;2022-09-01T05:49:45;100835.44;;;7.93;100.00
41254;BME280;26987;59.928;30.306;2022-09-01T05:52:13;100830.53;;;7.97;100.00
41254;BME280;26987;59.928;30.306;2022-09-01T05:54:41;100831.81;;;8.01;100.00
41254;BME280;26987;59.928;30.306;2022-09-01T05:57:15;100834.94;;;8.05;100.00
41254;BME280;26987;59.928;30.306;2022-09-01T05:59:43;100828.34;;;8.01;100.00
41254;BME280;26987;59.928;30.306;2022-09-01T06:02:16;100826.69;;;8.00;100.00
41254;BME280;26987;59.928;30.306;2022-09-01T06:04:46;100844.34;;;8.01;100.00
41254;BME280;26987;59.928;30.306;2022-09-01T06:07:22;100842.50;;;8.01;100.00
41254;BME280;26987;59.928;30.306;2022-09-01T06:09:55;100839.63;;;8.03;100.00
41254;BME280;26987;59.928;30.306;2022-09-01T06:12:23;100843.59;;;8.07;100.00
41254;BME280;26987;59.928;30.306;2022-09-01T06:14:54;100839.16;;;8.14;100.00
41254;BME280;26987;59.928;30.306;2022-09-01T06:17:25;100835.66;;;8.14;100.00
41254;BME280;26987;59.928;30.306;2022-09-01T06:20:00;100835.50;;;8.37;100.00
41254;BME280;26987;59.928;30.306;2022-09-01T06:22:37;100842.09;;;8.19;100.00
41254;BME280;26987;59.928;30.306;2022-09-01T06:25:07;100848.44;;;8.18;100.00
41254;BME280;26987;59.928;30.306;2022-09-01T06:27:38;100839.53;;;8.11;100.00
41254;BME280;26987;59.928;30.306;2022-09-01T06:30:11;100826.56;;;8.08;100.00
41254;BME280;26987;59.928;30.306;2022-09-01T06:32:46;100842.03;;;8.13;100.00
41254;BME280;26987;59.928;30.306;2022-09-01T06:35:17;100844.56;;;8.21;100.00
41254;BME280;26987;59.928;30.306;2022-09-01T06:37:47;100834.53;;;8.23;100.00
41254;BME280;26987;59.928;30.306;2022-09-01T06:40:35;100845.28;;;8.30;100.00
41254;BME280;26987;59.928;30.306;2022-09-01T06:43:08;100834.16;;;8.26;100.00
41254;BME280;26987;59.928;30.306;2022-09-01T06:45:41;100853.63;;;8.42;100.00
41254;BME280;26987;59.928;30.306;2022-09-01T06:48:11;100846.81;;;8.39;100.00
41254;BME280;26987;59.928;30.306;2022-09-01T06:50:44;100854.59;;;8.34;100.00
41254;BME280;26987;59.928;30.306;2022-09-01T06:53:12;100862.34;;;8.29;100.00
41254;BME280;26987;59.928;30.306;2022-09-01T06:55:47;100849.63;;;8.31;100.00
41254;BME280;26987;59.928;30.306;2022-09-01T06:58:16;100864.38;;;8.27;100.00
41254;BME280;26987;59.928;30.306;2022-09-01T07:00:49;100858.00;;;8.28;100.00
41254;BME280;26987;59.928;30.306;2022-09-01T07:03:18;100859.09;;;8.33;100.00
41254;BME280;26987;59.928;30.306;2022-09-01T07:06:07;100875.59;;;8.37;100.00
41254;BME280;26987;59.928;30.306;2022-09-01T07:08:55;100879.53;;;8.41;100.00
41254;BME280;26987;59.928;30.306;2022-09-01T07:11:33;100881.28;;;8.49;100.00
41254;BME280;26987;59.928;30.306;2022-09-01T07:14:03;100872.97;;;8.59;100.00
41254;BME280;26987;59.928;30.306;2022-09-01T07:16:35;100871.38;;;8.65;100.00
41254;BME280;26987;59.928;30.306;2022-09-01T07:19:07;100876.72;;;8.65;100.00
41254;BME280;26987;59.928;30.306;2022-09-01T07:21:50;100881.25;;;8.64;99.01
41254;BME280;26987;59.928;30.306;2022-09-01T07:24:20;100884.88;;;8.56;98.56
41254;BME280;26987;59.928;30.306;2022-09-01T07:27:08;100882.06;;;8.50;98.26
41254;BME280;26987;59.928;30.306;2022-09-01T07:29:37;100880.56;;;8.40;96.02
41254;BME280;26987;59.928;30.306;2022-09-01T07:32:05;100884.97;;;8.33;96.64
41254;BME280;26987;59.928;30.306;2022-09-01T07:34:34;100893.13;;;8.25;98.20
41254;BME280;26987;59.928;30.306;2022-09-01T07:37:06;100893.50;;;8.22;98.37
41254;BME280;26987;59.928;30.306;2022-09-01T07:39:37;100901.50;;;8.22;97.00
41254;BME280;26987;59.928;30.306;2022-09-01T07:42:33;100896.34;;;8.20;96.15
41254;BME280;26987;59.928;30.306;2022-09-01T07:45:22;100901.56;;;8.28;98.69
41254;BME280;26987;59.928;30.306;2022-09-01T07:48:05;100885.81;;;8.33;97.25
41254;BME280;26987;59.928;30.306;2022-09-01T07:50:44;100894.53;;;8.42;97.76
41254;BME280;26987;59.928;30.306;2022-09-01T07:53:16;100893.97;;;8.47;95.18
41254;BME280;26987;59.928;30.306;2022-09-01T07:55:46;100895.91;;;8.53;94.61
41254;BME280;26987;59.928;30.306;2022-09-01T07:58:17;100890.94;;;8.50;94.34
41254;BME280;26987;59.928;30.306;2022-09-01T08:00:48;100910.13;;;8.54;93.03
41254;BME280;26987;59.928;30.306;2022-09-01T08:03:19;100910.13;;;8.54;91.97
41254;BME280;26987;59.928;30.306;2022-09-01T08:05:48;100893.59;;;8.50;91.35
41254;BME280;26987;59.928;30.306;2022-09-01T08:08:21;100901.25;;;8.53;91.94
41254;BME280;26987;59.928;30.306;2022-09-01T08:10:49;100901.34;;;8.60;92.56
41254;BME280;26987;59.928;30.306;2022-09-01T08:13:18;100909.63;;;8.65;91.29
41254;BME280;26987;59.928;30.306;2022-09-01T08:15:46;100907.59;;;8.67;91.40
41254;BME280;26987;59.928;30.306;2022-09-01T08:18:14;100907.50;;;8.61;91.32
41254;BME280;26987;59.928;30.306;2022-09-01T08:20:44;100914.06;;;8.58;92.35
41254;BME280;26987;59.928;30.306;2022-09-01T08:23:25;100927.97;;;8.53;92.02
41254;BME280;26987;59.928;30.306;2022-09-01T08:25:53;100912.88;;;8.45;92.96
41254;BME280;26987;59.928;30.306;2022-09-01T08:28:21;100907.53;;;8.45;93.31
41254;BME280;26987;59.928;30.306;2022-09-01T08:30:49;100910.38;;;8.59;94.00
41254;BME280;26987;59.928;30.306;2022-09-01T08:33:18;100921.22;;;8.73;93.40
41254;BME280;26987;59.928;30.306;2022-09-01T08:35:48;100920.06;;;8.82;92.74
41254;BME280;26987;59.928;30.306;2022-09-01T08:38:17;100936.72;;;8.84;93.67
41254;BME280;26987;59.928;30.306;2022-09-01T08:40:52;100935.97;;;8.90;92.74
41254;BME280;26987;59.928;30.306;2022-09-01T08:43:25;100934.47;;;8.81;92.28
41254;BME280;26987;59.928;30.306;2022-09-01T08:46:03;100936.34;;;8.87;94.39
41254;BME280;26987;59.928;30.306;2022-09-01T08:48:37;100935.75;;;8.85;93.74
41254;BME280;26987;59.928;30.306;2022-09-01T08:51:14;100942.34;;;8.89;93.85
41254;BME280;26987;59.928;30.306;2022-09-01T08:54:19;100948.34;;;8.91;93.47
41254;BME280;26987;59.928;30.306;2022-09-01T08:56:53;100941.72;;;9.09;94.88
41254;BME280;26987;59.928;30.306;2022-09-01T08:59:41;100937.63;;;9.35;94.26
41254;BME280;26987;59.928;30.306;2022-09-01T09:02:29;100950.81;;;9.65;92.17
41254;BME280;26987;59.928;30.306;2022-09-01T09:05:05;100942.28;;;9.55;89.42
41254;BME280;26987;59.928;30.306;2022-09-01T09:07:52;100944.53;;;9.51;89.48
41254;BME280;26987;59.928;30.306;2022-09-01T09:10:28;100956.75;;;9.32;89.95
41254;BME280;26987;59.928;30.306;2022-09-01T09:13:06;100964.34;;;9.06;89.65
41254;BME280;26987;59.928;30.306;2022-09-01T09:15:41;100964.34;;;9.06;91.49
41254;BME280;26987;59.928;30.306;2022-09-01T09:18:16;100950.06;;;9.21;91.73
41254;BME280;26987;59.928;30.306;2022-09-01T09:20:47;100964.50;;;9.27;89.13
41254;BME280;26987;59.928;30.306;2022-09-01T09:23:23;100960.03;;;9.34;89.95
41254;BME280;26987;59.928;30.306;2022-09-01T09:25:51;100973.69;;;9.39;90.64
41254;BME280;26987;59.928;30.306;2022-09-01T09:28:20;100972.13;;;9.52;90.49
41254;BME280;26987;59.928;30.306;2022-09-01T09:30:48;100974.56;;;9.46;90.49
41254;BME280;26987;59.928;30.306;2022-09-01T09:33:33;100980.75;;;9.47;90.13
41254;BME280;26987;59.928;30.306;2022-09-01T09:36:28;100986.97;;;9.32;90.51
41254;BME280;26987;59.928;30.306;2022-09-01T09:39:09;100989.50;;;9.12;92.63
41254;BME280;26987;59.928;30.306;2022-09-01T09:41:39;100996.59;;;8.83;94.13
41254;BME280;26987;59.928;30.306;2022-09-01T09:44:28;100994.03;;;8.75;94.36
41254;BME280;26987;59.928;30.306;2022-09-01T09:46:58;100989.63;;;8.52;95.54
41254;BME280;26987;59.928;30.306;2022-09-01T09:49:28;100998.31;;;8.54;95.32
41254;BME280;26987;59.928;30.306;2022-09-01T09:52:11;101005.66;;;8.52;97.25
41254;BME280;26987;59.928;30.306;2022-09-01T09:54:49;100999.22;;;8.61;97.09
41254;BME280;26987;59.928;30.306;2022-09-01T09:57:24;101002.81;;;8.68;96.58
41254;BME280;26987;59.928;30.306;2022-09-01T09:59:57;100997.09;;;8.72;96.42
41254;BME280;26987;59.928;30.306;2022-09-01T10:02:27;101003.34;;;9.01;95.27
41254;BME280;26987;59.928;30.306;2022-09-01T10:04:58;101005.78;;;8.95;93.79
41254;BME280;26987;59.928;30.306;2022-09-01T10:07:33;101000.44;;;9.17;94.41
41254;BME280;26987;59.928;30.306;2022-09-01T10:10:03;101014.72;;;9.25;91.76
41254;BME280;26987;59.928;30.306;2022-09-01T10:12:32;101009.38;;;9.25;90.37
41254;BME280;26987;59.928;30.306;2022-09-01T10:15:04;100993.09;;;9.26;88.98
41254;BME280;26987;59.928;30.306;2022-09-01T10:17:35;101017.00;;;9.28;89.78
41254;BME280;26987;59.928;30.306;2022-09-01T10:20:07;101018.59;;;9.22;87.81
41254;BME280;26987;59.928;30.306;2022-09-01T10:22:38;101021.03;;;9.17;87.13
41254;BME280;26987;59.928;30.306;2022-09-01T10:25:12;101028.53;;;9.06;87.66
41254;BME280;26987;59.928;30.306;2022-09-01T10:27:46;101036.19;;;9.10;89.53
41254;BME280;26987;59.928;30.306;2022-09-01T10:30:18;101023.88;;;9.15;88.98
41254;BME280;26987;59.928;30.306;2022-09-01T10:32:48;101027.47;;;9.23;89.98
41254;BME280;26987;59.928;30.306;2022-09-01T10:35:21;101033.19;;;9.19;87.30
41254;BME280;26987;59.928;30.306;2022-09-01T10:37:50;101043.94;;;9.04;87.25
41254;BME280;26987;59.928;30.306;2022-09-01T10:40:34;101039.41;;;9.05;89.90
41254;BME280;26987;59.928;30.306;2022-09-01T10:43:22;101045.63;;;8.90;89.42
41254;BME280;26987;59.928;30.306;2022-09-01T10:45:53;101067.03;;;8.75;91.31
41254;BME280;26987;59.928;30.306;2022-09-01T10:48:25;101060.22;;;8.73;91.16
41254;BME280;26987;59.928;30.306;2022-09-01T10:53:59;101063.34;;;8.91;90.62
41254;BME280;26987;59.928;30.306;2022-09-01T10:56:37;101067.59;;;8.70;93.33
41254;BME280;26987;59.928;30.306;2022-09-01T10:59:07;101069.00;;;8.66;92.65
41254;BME280;26987;59.928;30.306;2022-09-01T11:05:11;101074.31;;;8.81;91.22
41254;BME280;26987;59.928;30.306;2022-09-01T11:07:39;101075.97;;;8.98;90.79
41254;BME280;26987;59.928;30.306;2022-09-01T11:10:32;101073.91;;;9.00;92.27
41254;BME280;26987;59.928;30.306;2022-09-01T11:13:23;101083.25;;;9.26;92.88
41254;BME280;26987;59.928;30.306;2022-09-01T11:15:53;101085.94;;;9.26;90.17
41254;BME280;26987;59.928;30.306;2022-09-01T11:18:24;101078.53;;;9.28;91.75
41254;BME280;26987;59.928;30.306;2022-09-01T11:20:54;101083.97;;;9.34;91.20
41254;BME280;26987;59.928;30.306;2022-09-01T11:23:40;101072.47;;;9.19;91.30
41254;BME280;26987;59.928;30.306;2022-09-01T11:32:16;101089.56;;;9.18;91.87
41254;BME280;26987;59.928;30.306;2022-09-01T11:34:47;101079.97;;;9.08;93.77
41254;BME280;26987;59.928;30.306;2022-09-01T11:37:21;101075.75;;;8.99;92.87
41254;BME280;26987;59.928;30.306;2022-09-01T11:39:52;101061.50;;;8.77;94.54
41254;BME280;26987;59.928;30.306;2022-09-01T11:42:25;101076.09;;;8.74;93.62
41254;BME280;26987;59.928;30.306;2022-09-01T11:44:58;101070.47;;;8.69;95.23
41254;BME280;26987;59.928;30.306;2022-09-01T11:47:31;101070.66;;;8.67;96.38
41254;BME280;26987;59.928;30.306;2022-09-01T11:50:02;101083.09;;;8.60;96.96
41254;BME280;26987;59.928;30.306;2022-09-01T11:52:35;101086.31;;;8.70;97.93
41254;BME280;26987;59.928;30.306;2022-09-01T11:55:06;101077.91;;;8.74;98.67
41254;BME280;26987;59.928;30.306;2022-09-01T11:57:36;101076.75;;;8.76;98.63
41254;BME280;26987;59.928;30.306;2022-09-01T12:00:06;101087.22;;;8.93;98.41
41254;BME280;26987;59.928;30.306;2022-09-01T12:02:43;101082.41;;;9.03;98.61
41254;BME280;26987;59.928;30.306;2022-09-01T12:05:24;101081.06;;;9.14;98.93
41254;BME280;26987;59.928;30.306;2022-09-01T12:07:54;101088.19;;;9.07;98.34
41254;BME280;26987;59.928;30.306;2022-09-01T12:10:29;101089.94;;;9.15;96.04
41254;BME280;26987;59.928;30.306;2022-09-01T12:13:03;101083.94;;;9.13;94.96
41254;BME280;26987;59.928;30.306;2022-09-01T12:15:33;101083.03;;;9.05;96.06
41254;BME280;26987;59.928;30.306;2022-09-01T12:18:14;101084.91;;;9.05;97.32
41254;BME280;26987;59.928;30.306;2022-09-01T12:20:45;101083.22;;;9.04;95.95
41254;BME280;26987;59.928;30.306;2022-09-01T12:23:21;101091.16;;;9.12;94.97
41254;BME280;26987;59.928;30.306;2022-09-01T12:25:50;101081.66;;;9.10;96.23
41254;BME280;26987;59.928;30.306;2022-09-01T12:28:21;101081.72;;;9.16;95.00
41254;BME280;26987;59.928;30.306;2022-09-01T12:30:50;101084.28;;;9.25;94.98
41254;BME280;26987;59.928;30.306;2022-09-01T12:33:19;101095.00;;;9.25;92.40
41254;BME280;26987;59.928;30.306;2022-09-01T12:35:48;101083.44;;;9.24;90.71
41254;BME280;26987;59.928;30.306;2022-09-01T12:38:28;101093.09;;;9.40;92.03
41254;BME280;26987;59.928;30.306;2022-09-01T12:40:57;101102.38;;;9.44;91.88
41254;BME280;26987;59.928;30.306;2022-09-01T12:43:36;101099.31;;;9.48;91.36
41254;BME280;26987;59.928;30.306;2022-09-01T12:46:06;101102.38;;;9.44;91.22
41254;BME280;26987;59.928;30.306;2022-09-01T12:48:38;101108.38;;;9.46;92.74
41254;BME280;26987;59.928;30.306;2022-09-01T12:51:17;101112.16;;;9.52;92.17
41254;BME280;26987;59.928;30.306;2022-09-01T12:53:52;101101.44;;;9.52;91.48
41254;BME280;26987;59.928;30.306;2022-09-01T12:56:22;101107.81;;;9.73;90.73
41254;BME280;26987;59.928;30.306;2022-09-01T12:59:05;101107.63;;;9.53;91.97
41254;BME280;26987;59.928;30.306;2022-09-01T13:01:35;101099.31;;;9.48;91.19
41254;BME280;26987;59.928;30.306;2022-09-01T13:04:22;101110.91;;;9.55;91.38
41254;BME280;26987;59.928;30.306;2022-09-01T13:06:52;101100.34;;;9.46;92.59
41254;BME280;26987;59.928;30.306;2022-09-01T13:09:21;101129.75;;;9.40;88.30
41254;BME280;26987;59.928;30.306;2022-09-01T13:11:49;101118.63;;;9.21;88.48
41254;BME280;26987;59.928;30.306;2022-09-01T13:14:17;101109.88;;;9.12;89.83
41254;BME280;26987;59.928;30.306;2022-09-01T13:16:46;101118.66;;;9.06;90.05
41254;BME280;26987;59.928;30.306;2022-09-01T13:19:14;101115.69;;;9.01;90.88
41254;BME280;26987;59.928;30.306;2022-09-01T13:21:42;101121.88;;;9.01;91.28
41254;BME280;26987;59.928;30.306;2022-09-01T13:24:10;101122.72;;;9.02;92.48
41254;BME280;26987;59.928;30.306;2022-09-01T13:26:39;101110.63;;;9.06;94.83